Time;durP1;ratioP1;P1;durP2;ratioP2;P2;SDS_P1;SDS_P2;PMS_P1;PMS_P2;Temp;Humidity;BMP_temperature;BMP_pressure;BME280_temperature;BME280_humidity;BME280_pressure;Samples;Min_cycle;Max_cycle;Signal;HPM_P1;HPM_P2
2023/11/19 00:02:26;;;;;;;1.30;0.57;;;;;;;;;;5071862;28;20075;-59
2023/11/19 00:04:54;;;;;;;6.18;0.82;;;;;;;;;;5071425;28;20048;-59
2023/11/19 00:07:22;;;;;;;2.75;1.20;;;;;;;;;;5071079;28;20049;-59
2023/11/19 00:09:49;;;;;;;1.65;0.90;;;;;;;;;;5071572;28;20028;-59
2023/11/19 00:12:16;;;;;;;8.93;1.10;;;;;;;;;;5069435;28;20032;-59
2023/11/19 00:14:43;;;;;;;1.05;0.57;;;;;;;;;;5066010;28;20024;-59
2023/11/19 00:17:09;;;;;;;0.68;0.45;;;;;;;;;;5066382;28;20024;-59
2023/11/19 00:19:36;;;;;;;10.52;1.02;;;;;;;;;;5066245;28;20036;-59
2023/11/19 00:22:03;;;;;;;0.73;0.43;;;;;;;;;;5067319;28;20424;-59
2023/11/19 00:24:31;;;;;;;2.28;1.13;;;;;;;;;;5071547;28;20036;-59
2023/11/19 00:26:58;;;;;;;1.80;0.70;;;;;;;;;;5071172;28;20067;-59
2023/11/19 00:29:25;;;;;;;4.40;1.67;;;;;;;;;;5071366;28;20025;-59
2023/11/19 00:31:52;;;;;;;1.90;0.93;;;;;;;;;;5071102;28;20379;-59
2023/11/19 00:34:21;;;;;;;6.37;1.50;;;;;;;;;;5069690;28;20036;-59
2023/11/19 00:36:48;;;;;;;3.73;0.97;;;;;;;;;;5065788;28;20028;-59
2023/11/19 00:39:16;;;;;;;1.43;0.83;;;;;;;;;;5066090;28;20033;-59
2023/11/19 00:41:43;;;;;;;0.83;0.53;;;;;;;;;;5066131;28;20025;-59
2023/11/19 00:44:10;;;;;;;12.23;1.10;;;;;;;;;;5066151;28;20033;-59
2023/11/19 00:46:36;;;;;;;12.40;0.93;;;;;;;;;;5071400;28;20067;-59
2023/11/19 00:49:03;;;;;;;1.77;0.70;;;;;;;;;;5071297;28;20034;-59
2023/11/19 00:51:37;;;;;;;0.27;0.23;;;;;;;;;;5071171;28;20028;-60
2023/11/19 00:54:04;;;;;;;7.32;1.58;;;;;;;;;;5070963;28;20360;-59
2023/11/19 00:56:31;;;;;;;2.20;1.07;;;;;;;;;;5071330;28;20044;-58
2023/11/19 00:58:59;;;;;;;3.20;1.33;;;;;;;;;;5067893;28;20020;-59
2023/11/19 01:01:27;;;;;;;4.50;1.63;;;;;;;;;;5069244;28;20036;-59
2023/11/19 01:03:54;;;;;;;1.73;0.70;;;;;;;;;;5069640;28;20042;-59
2023/11/19 01:06:30;;;;;;;0.80;0.60;;;;;;;;;;5069311;28;20040;-58
2023/11/19 01:08:58;;;;;;;4.17;0.90;;;;;;;;;;5074801;28;20027;-58
2023/11/19 01:11:25;;;;;;;2.43;0.87;;;;;;;;;;5074629;28;20406;-58
2023/11/19 01:13:52;;;;;;;3.77;1.33;;;;;;;;;;5074765;28;20454;-58
2023/11/19 01:16:20;;;;;;;0.83;0.67;;;;;;;;;;5074371;28;20024;-58
2023/11/19 01:18:50;;;;;;;1.20;0.67;;;;;;;;;;5074509;28;20012;-58
2023/11/19 01:21:17;;;;;;;2.23;0.97;;;;;;;;;;5069362;28;20035;-59
2023/11/19 01:23:44;;;;;;;2.20;1.07;;;;;;;;;;5068713;28;20488;-58
2023/11/19 01:26:12;;;;;;;3.20;1.33;;;;;;;;;;5069256;28;20036;-58
2023/11/19 01:28:42;;;;;;;2.57;1.30;;;;;;;;;;5069080;28;20041;-58
2023/11/19 01:31:09;;;;;;;1.97;1.50;;;;;;;;;;5073288;28;20043;-58
2023/11/19 01:33:39;;;;;;;2.80;1.67;;;;;;;;;;5074377;28;20032;-58
2023/11/19 01:36:07;;;;;;;1.67;1.23;;;;;;;;;;5073947;28;20032;-58
2023/11/19 01:38:35;;;;;;;1.83;1.20;;;;;;;;;;5074282;28;20081;-58
2023/11/19 01:41:04;;;;;;;16.00;2.17;;;;;;;;;;5073753;28;20052;-58
2023/11/19 01:43:38;;;;;;;2.53;1.30;;;;;;;;;;5069352;28;20505;-59
2023/11/19 01:46:05;;;;;;;15.50;2.07;;;;;;;;;;5068566;28;20118;-58
2023/11/19 01:48:34;;;;;;;1.23;0.90;;;;;;;;;;5068519;28;20033;-58
2023/11/19 01:51:02;;;;;;;2.83;1.13;;;;;;;;;;5068520;28;20025;-58
2023/11/19 01:53:29;;;;;;;1.17;0.80;;;;;;;;;;5072596;28;20025;-58
2023/11/19 01:55:56;;;;;;;3.00;0.93;;;;;;;;;;5073332;28;20044;-58
2023/11/19 01:58:23;;;;;;;1.23;0.87;;;;;;;;;;5074084;28;20028;-58
2023/11/19 02:00:50;;;;;;;2.83;1.03;;;;;;;;;;5073953;28;20051;-58
2023/11/19 02:03:20;;;;;;;0.40;0.40;;;;;;;;;;5073940;28;20028;-58
2023/11/19 02:05:49;;;;;;;1.27;1.03;;;;;;;;;;5069400;28;20458;-58
2023/11/19 02:08:15;;;;;;;1.93;0.93;;;;;;;;;;5068522;28;20479;-58
2023/11/19 02:10:43;;;;;;;9.83;0.97;;;;;;;;;;5067163;28;20044;-58
2023/11/19 02:13:10;;;;;;;3.13;1.10;;;;;;;;;;5067890;28;20020;-58
2023/11/19 02:15:37;;;;;;;1.27;0.80;;;;;;;;;;5071491;28;20020;-58
2023/11/19 02:18:19;;;;;;;1.13;0.80;;;;;;;;;;5073520;28;20016;-58
2023/11/19 02:20:47;;;;;;;8.40;1.30;;;;;;;;;;5073190;28;20032;-58
2023/11/19 02:23:14;;;;;;;4.07;1.20;;;;;;;;;;5073452;28;20024;-58
2023/11/19 02:25:41;;;;;;;0.83;0.67;;;;;;;;;;5073007;28;20025;-58
2023/11/19 02:28:08;;;;;;;1.23;0.77;;;;;;;;;;5069206;28;20036;-58
2023/11/19 02:30:38;;;;;;;2.10;1.10;;;;;;;;;;5067919;28;20502;-58
2023/11/19 02:33:05;;;;;;;2.20;1.40;;;;;;;;;;5067675;28;20028;-58
2023/11/19 02:35:33;;;;;;;2.23;1.50;;;;;;;;;;5067530;28;20032;-58
2023/11/19 02:38:06;;;;;;;16.63;1.87;;;;;;;;;;5070730;28;20081;-58
2023/11/19 02:40:33;;;;;;;6.97;3.83;;;;;;;;;;5073049;28;20107;-58
2023/11/19 02:43:00;;;;;;;3.70;2.00;;;;;;;;;;5072555;28;20116;-58
2023/11/19 02:45:27;;;;;;;3.93;2.03;;;;;;;;;;5072551;28;20107;-58
2023/11/19 02:47:57;;;;;;;7.43;2.30;;;;;;;;;;5072840;28;20404;-58
2023/11/19 02:50:27;;;;;;;2.73;1.70;;;;;;;;;;5069493;28;20024;-58
2023/11/19 02:52:57;;;;;;;4.33;2.47;;;;;;;;;;5067802;28;20036;-58
2023/11/19 02:55:24;;;;;;;2.70;1.50;;;;;;;;;;5067643;28;20387;-58
2023/11/19 02:57:53;;;;;;;1.97;0.93;;;;;;;;;;5067515;28;20028;-58
2023/11/19 03:00:24;;;;;;;12.63;2.47;;;;;;;;;;5049887;28;20379;-58
2023/11/19 03:02:59;;;;;;;4.87;2.43;;;;;;;;;;5052506;28;20496;-58
2023/11/19 03:05:26;;;;;;;2.50;1.90;;;;;;;;;;5055789;28;20056;-58
2023/11/19 03:07:53;;;;;;;3.50;2.07;;;;;;;;;;5061057;28;20482;-58
2023/11/19 03:10:19;;;;;;;2.77;1.63;;;;;;;;;;5072426;28;20029;-57
2023/11/19 03:12:46;;;;;;;12.23;2.00;;;;;;;;;;5068530;28;20174;-58
2023/11/19 03:15:13;;;;;;;2.30;1.47;;;;;;;;;;5046958;28;20047;-57
2023/11/19 03:17:42;;;;;;;3.70;1.57;;;;;;;;;;5047372;28;20016;-58
2023/11/19 03:20:10;;;;;;;2.30;1.50;;;;;;;;;;5047058;28;20102;-58
2023/11/19 03:22:41;;;;;;;3.13;1.73;;;;;;;;;;5048890;28;20047;-58
2023/11/19 03:25:08;;;;;;;2.07;1.40;;;;;;;;;;5051991;28;20033;-58
2023/11/19 03:27:36;;;;;;;1.93;1.07;;;;;;;;;;5052179;28;20106;-57
2023/11/19 03:30:04;;;;;;;3.53;1.80;;;;;;;;;;5052332;28;20021;-57
2023/11/19 03:32:32;;;;;;;1.43;1.03;;;;;;;;;;5051736;28;20476;-57
2023/11/19 03:34:59;;;;;;;2.13;1.53;;;;;;;;;;5050206;28;20075;-58
2023/11/19 03:37:27;;;;;;;2.40;1.20;;;;;;;;;;5066770;28;20138;-57
2023/11/19 03:39:59;;;;;;;24.93;2.10;;;;;;;;;;5067168;28;20029;-57
2023/11/19 03:42:30;;;;;;;3.67;1.37;;;;;;;;;;5066837;28;20067;-58
2023/11/19 03:44:57;;;;;;;2.03;1.30;;;;;;;;;;5068666;28;20032;-57
2023/11/19 03:47:24;;;;;;;1.50;1.10;;;;;;;;;;5071320;28;20111;-58
2023/11/19 03:49:51;;;;;;;2.83;1.43;;;;;;;;;;5071969;28;20047;-58
2023/11/19 03:52:21;;;;;;;1.53;1.03;;;;;;;;;;5072046;28;20426;-58
2023/11/19 03:54:47;;;;;;;3.27;1.10;;;;;;;;;;5067770;28;20053;-58
2023/11/19 03:57:18;;;;;;;3.83;1.43;;;;;;;;;;5050214;28;20774;-58
2023/11/19 03:59:45;;;;;;;9.43;1.57;;;;;;;;;;5046728;28;20029;-57
2023/11/19 04:02:11;;;;;;;3.30;1.50;;;;;;;;;;5046805;28;20028;-58
2023/11/19 04:04:40;;;;;;;13.77;1.73;;;;;;;;;;5046484;28;20078;-57
2023/11/19 04:07:07;;;;;;;1.90;1.07;;;;;;;;;;5047652;28;20068;-58
2023/11/19 04:09:34;;;;;;;1.23;0.87;;;;;;;;;;5051716;28;20037;-57
2023/11/19 04:12:01;;;;;;;2.90;1.27;;;;;;;;;;5051752;28;20496;-57
2023/11/19 04:14:28;;;;;;;1.83;1.13;;;;;;;;;;5051610;28;20039;-57
2023/11/19 04:16:55;;;;;;;15.60;1.63;;;;;;;;;;5051878;28;20533;-58
2023/11/19 04:19:21;;;;;;;2.37;1.60;;;;;;;;;;5050661;28;20051;-58
2023/11/19 04:21:48;;;;;;;25.17;3.00;;;;;;;;;;5063375;28;20044;-58
2023/11/19 04:24:15;;;;;;;13.43;1.83;;;;;;;;;;5066609;28;20511;-57
2023/11/19 04:26:46;;;;;;;2.30;1.40;;;;;;;;;;5066462;28;20075;-57
2023/11/19 04:29:14;;;;;;;6.00;1.40;;;;;;;;;;5066507;28;20544;-57
2023/11/19 04:31:41;;;;;;;1.67;1.17;;;;;;;;;;5071298;28;20036;-58
2023/11/19 04:34:08;;;;;;;2.30;1.17;;;;;;;;;;5074274;28;20097;-58
2023/11/19 04:36:35;;;;;;;3.53;1.27;;;;;;;;;;5075367;28;20020;-58
2023/11/19 04:39:02;;;;;;;9.33;1.00;;;;;;;;;;5075121;28;20021;-57
2023/11/19 04:41:29;;;;;;;3.03;1.33;;;;;;;;;;5075104;28;20397;-57
2023/11/19 04:43:55;;;;;;;5.33;1.53;;;;;;;;;;5070083;28;20028;-57
2023/11/19 04:46:23;;;;;;;1.57;1.17;;;;;;;;;;5058815;28;20055;-57
2023/11/19 04:48:50;;;;;;;4.70;1.73;;;;;;;;;;5050110;28;20112;-57
2023/11/19 04:51:17;;;;;;;13.17;2.30;;;;;;;;;;5049849;28;20492;-57
2023/11/19 04:53:44;;;;;;;1.27;0.97;;;;;;;;;;5054599;28;20032;-57
2023/11/19 04:56:11;;;;;;;7.00;1.63;;;;;;;;;;5055023;28;20111;-57
2023/11/19 04:58:37;;;;;;;5.83;1.87;;;;;;;;;;5055155;28;20025;-57
2023/11/19 05:01:04;;;;;;;1.70;1.13;;;;;;;;;;5054959;28;20112;-57
2023/11/19 05:03:31;;;;;;;2.80;1.50;;;;;;;;;;5054946;28;20435;-57
2023/11/19 05:05:59;;;;;;;3.93;1.73;;;;;;;;;;5050190;28;20025;-57
2023/11/19 05:08:25;;;;;;;7.47;1.53;;;;;;;;;;5049686;28;20024;-57
2023/11/19 05:10:52;;;;;;;1.60;0.90;;;;;;;;;;5053751;28;20023;-57
2023/11/19 05:13:19;;;;;;;0.57;0.57;;;;;;;;;;5069614;28;20028;-57
2023/11/19 05:15:45;;;;;;;10.13;1.40;;;;;;;;;;5072794;28;20039;-57
2023/11/19 05:18:12;;;;;;;2.47;1.20;;;;;;;;;;5074995;28;20043;-57
2023/11/19 05:20:38;;;;;;;3.23;1.40;;;;;;;;;;5074460;28;20349;-57
2023/11/19 05:23:05;;;;;;;2.00;1.30;;;;;;;;;;5074637;28;20024;-57
2023/11/19 05:25:32;;;;;;;1.27;1.10;;;;;;;;;;5074446;28;20016;-57
2023/11/19 05:27:58;;;;;;;1.33;0.80;;;;;;;;;;5070738;28;20029;-57
2023/11/19 05:30:25;;;;;;;1.37;0.77;;;;;;;;;;5069253;28;20027;-57
2023/11/19 05:32:52;;;;;;;2.10;1.13;;;;;;;;;;5069192;28;20153;-58
2023/11/19 05:35:19;;;;;;;2.73;1.00;;;;;;;;;;5069311;28;20399;-57
2023/11/19 05:37:45;;;;;;;6.77;2.20;;;;;;;;;;5071650;28;20082;-57
2023/11/19 05:40:14;;;;;;;2.73;1.60;;;;;;;;;;5074428;28;20017;-57
2023/11/19 05:42:44;;;;;;;1.63;1.10;;;;;;;;;;5074312;28;20021;-57
2023/11/19 05:45:13;;;;;;;1.17;0.97;;;;;;;;;;5072750;28;20034;-57
2023/11/19 05:47:40;;;;;;;1.73;1.13;;;;;;;;;;5073841;28;20028;-57
2023/11/19 05:50:07;;;;;;;2.90;1.37;;;;;;;;;;5070913;28;20028;-57
2023/11/19 05:52:33;;;;;;;1.63;1.10;;;;;;;;;;5068891;28;20029;-57
2023/11/19 05:55:09;;;;;;;6.27;1.20;;;;;;;;;;5068533;28;20120;-57
2023/11/19 05:57:37;;;;;;;8.67;1.77;;;;;;;;;;5068745;28;20036;-57
2023/11/19 06:00:06;;;;;;;5.23;1.63;;;;;;;;;;5071176;28;20032;-57
2023/11/19 06:02:37;;;;;;;2.07;1.33;;;;;;;;;;5073845;28;20032;-57
2023/11/19 06:05:05;;;;;;;2.90;1.53;;;;;;;;;;5073110;28;20111;-57
2023/11/19 06:07:32;;;;;;;7.30;1.80;;;;;;;;;;5074000;28;20036;-57
2023/11/19 06:09:59;;;;;;;2.90;1.17;;;;;;;;;;5055575;28;20382;-57
2023/11/19 06:12:27;;;;;;;1.90;1.00;;;;;;;;;;5050825;28;20025;-57
2023/11/19 06:14:54;;;;;;;2.33;1.73;;;;;;;;;;5048401;28;20510;-57
2023/11/19 06:17:21;;;;;;;1.97;0.93;;;;;;;;;;5048283;28;20473;-57
2023/11/19 06:19:47;;;;;;;2.77;1.50;;;;;;;;;;5060357;28;20048;-57
2023/11/19 06:22:14;;;;;;;1.50;0.97;;;;;;;;;;5069796;28;20078;-57
2023/11/19 06:24:41;;;;;;;1.07;0.80;;;;;;;;;;5070688;28;20021;-56
2023/11/19 06:27:08;;;;;;;1.67;0.50;;;;;;;;;;5069129;28;20040;-57
2023/11/19 06:29:34;;;;;;;2.70;1.17;;;;;;;;;;5042154;28;20052;-57
2023/11/19 06:32:01;;;;;;;1.53;1.03;;;;;;;;;;5053332;28;20383;-57
2023/11/19 06:34:33;;;;;;;3.00;1.73;;;;;;;;;;5070683;28;20029;-57
2023/11/19 06:36:59;;;;;;;3.77;2.67;;;;;;;;;;5067349;28;20025;-58
2023/11/19 06:39:26;;;;;;;5.80;2.57;;;;;;;;;;5067565;28;20025;-57
2023/11/19 06:41:53;;;;;;;3.77;2.57;;;;;;;;;;5067945;28;20099;-57
2023/11/19 06:44:19;;;;;;;5.90;2.87;;;;;;;;;;5068151;28;20408;-57
2023/11/19 06:46:46;;;;;;;8.03;3.70;;;;;;;;;;5072142;28;20357;-57
2023/11/19 06:49:13;;;;;;;5.90;3.70;;;;;;;;;;5072655;28;20381;-56
2023/11/19 06:51:43;;;;;;;9.23;3.67;;;;;;;;;;5072895;28;20028;-56
2023/11/19 06:54:10;;;;;;;5.23;2.60;;;;;;;;;;5072887;28;20036;-56
2023/11/19 06:56:37;;;;;;;4.87;2.43;;;;;;;;;;5071049;28;20082;-57
2023/11/19 06:59:03;;;;;;;5.50;2.87;;;;;;;;;;5063600;28;20029;-56
2023/11/19 07:01:35;;;;;;;9.27;3.50;;;;;;;;;;5047613;28;20025;-57
2023/11/19 07:04:08;;;;;;;7.43;2.43;;;;;;;;;;5047434;28;20115;-56
2023/11/19 07:06:35;;;;;;;3.73;2.20;;;;;;;;;;5047979;28;20051;-57
2023/11/19 07:09:09;;;;;;;2.00;1.13;;;;;;;;;;5052694;28;20107;-57
2023/11/19 07:11:36;;;;;;;4.57;2.77;;;;;;;;;;5052427;28;20375;-57
2023/11/19 07:14:03;;;;;;;3.87;2.23;;;;;;;;;;5052558;28;20278;-57
2023/11/19 07:16:30;;;;;;;4.27;2.07;;;;;;;;;;5052385;28;20678;-57
2023/11/19 07:18:58;;;;;;;7.33;2.23;;;;;;;;;;5051310;28;20486;-58
2023/11/19 07:21:25;;;;;;;4.30;2.03;;;;;;;;;;5046859;28;20087;-57
2023/11/19 07:23:52;;;;;;;3.53;2.03;;;;;;;;;;5067193;28;20040;-57
2023/11/19 07:26:18;;;;;;;2.83;1.67;;;;;;;;;;5067166;28;20052;-57
2023/11/19 07:28:45;;;;;;;2.27;1.40;;;;;;;;;;5066800;28;20059;-57
2023/11/19 07:31:12;;;;;;;2.43;1.60;;;;;;;;;;5072275;28;20031;-57
2023/11/19 07:33:42;;;;;;;3.03;1.90;;;;;;;;;;5072005;28;20359;-57
2023/11/19 07:36:09;;;;;;;5.13;1.47;;;;;;;;;;5072237;28;20090;-57
2023/11/19 07:38:36;;;;;;;3.37;1.67;;;;;;;;;;5072138;28;20017;-57
2023/11/19 07:41:05;;;;;;;2.10;1.43;;;;;;;;;;5072027;28;20375;-57
2023/11/19 07:43:31;;;;;;;1.60;1.33;;;;;;;;;;5066782;28;20043;-58
2023/11/19 07:46:01;;;;;;;4.73;1.57;;;;;;;;;;5066342;28;20089;-58
2023/11/19 07:48:28;;;;;;;2.50;1.47;;;;;;;;;;5066434;28;20024;-57
2023/11/19 07:50:55;;;;;;;1.60;1.10;;;;;;;;;;5066942;28;20503;-57
2023/11/19 07:53:22;;;;;;;1.60;1.07;;;;;;;;;;5071655;28;20032;-56
2023/11/19 07:55:48;;;;;;;1.67;1.27;;;;;;;;;;5071684;28;20499;-57
2023/11/19 07:58:15;;;;;;;2.30;1.27;;;;;;;;;;5072041;28;20117;-56
2023/11/19 08:00:42;;;;;;;2.57;1.53;;;;;;;;;;5071945;28;20032;-56
2023/11/19 08:03:08;;;;;;;1.80;1.17;;;;;;;;;;5071491;28;20025;-57
2023/11/19 08:05:35;;;;;;;5.93;1.90;;;;;;;;;;5066818;28;20035;-57
2023/11/19 08:08:02;;;;;;;1.80;1.17;;;;;;;;;;5067561;28;20447;-56
2023/11/19 08:10:29;;;;;;;2.17;1.47;;;;;;;;;;5071013;28;20488;-57
2023/11/19 08:12:56;;;;;;;1.97;1.03;;;;;;;;;;5070359;28;20467;-56
2023/11/19 08:15:22;;;;;;;3.37;1.37;;;;;;;;;;5074769;28;20037;-56
2023/11/19 08:17:49;;;;;;;2.20;1.20;;;;;;;;;;5075978;28;20392;-57
2023/11/19 08:20:15;;;;;;;2.37;1.40;;;;;;;;;;5075734;28;20021;-57
2023/11/19 08:22:42;;;;;;;5.77;1.40;;;;;;;;;;5059442;28;20027;-56
2023/11/19 08:25:09;;;;;;;2.67;1.27;;;;;;;;;;5075835;28;20427;-57
2023/11/19 08:27:35;;;;;;;2.20;1.03;;;;;;;;;;5071293;28;20098;-57
2023/11/19 08:30:02;;;;;;;3.00;1.67;;;;;;;;;;5070305;28;20029;-57
2023/11/19 08:32:29;;;;;;;1.73;1.30;;;;;;;;;;5070481;28;20510;-57
2023/11/19 08:34:56;;;;;;;2.30;1.50;;;;;;;;;;5070257;28;20032;-57
2023/11/19 08:37:22;;;;;;;1.57;1.07;;;;;;;;;;5073374;28;20425;-56
2023/11/19 08:39:49;;;;;;;2.07;1.37;;;;;;;;;;5075217;28;20451;-56
2023/11/19 08:42:16;;;;;;;1.50;0.90;;;;;;;;;;5075471;28;20017;-57
2023/11/19 08:44:43;;;;;;;1.87;1.27;;;;;;;;;;5075347;28;20642;-56
2023/11/19 08:47:15;;;;;;;1.57;1.17;;;;;;;;;;5074877;28;20086;-57
2023/11/19 08:49:42;;;;;;;4.07;1.00;;;;;;;;;;5071785;28;20036;-56
2023/11/19 08:52:10;;;;;;;2.57;1.57;;;;;;;;;;5069992;28;20021;-56
2023/11/19 08:54:37;;;;;;;1.50;1.03;;;;;;;;;;5069942;28;20041;-56
2023/11/19 08:57:07;;;;;;;2.40;1.30;;;;;;;;;;5069503;28;20032;-56
2023/11/19 08:59:33;;;;;;;4.53;1.00;;;;;;;;;;5072241;28;20720;-57
2023/11/19 09:02:00;;;;;;;2.73;1.33;;;;;;;;;;5075144;28;20108;-56
2023/11/19 09:04:27;;;;;;;1.60;1.30;;;;;;;;;;5074619;28;20088;-56
2023/11/19 09:06:55;;;;;;;2.73;1.50;;;;;;;;;;5075063;28;20383;-56
2023/11/19 09:09:22;;;;;;;1.60;0.97;;;;;;;;;;5074725;28;20810;-56
2023/11/19 09:11:48;;;;;;;1.67;0.90;;;;;;;;;;5072244;28;20021;-56
2023/11/19 09:14:15;;;;;;;1.73;1.00;;;;;;;;;;5069296;28;20261;-56
2023/11/19 09:16:42;;;;;;;0.97;0.60;;;;;;;;;;5069772;28;20475;-56
2023/11/19 09:19:08;;;;;;;2.23;1.33;;;;;;;;;;5069275;28;20265;-56
2023/11/19 09:21:38;;;;;;;3.13;1.10;;;;;;;;;;5071130;28;20261;-56
2023/11/19 09:24:07;;;;;;;1.10;0.83;;;;;;;;;;5074389;28;20691;-56
2023/11/19 09:26:35;;;;;;;1.57;0.97;;;;;;;;;;5074602;28;20277;-56
2023/11/19 09:29:02;;;;;;;1.40;0.97;;;;;;;;;;5074650;28;20063;-56
2023/11/19 09:31:29;;;;;;;2.87;1.23;;;;;;;;;;5074480;28;20604;-56
2023/11/19 09:33:56;;;;;;;2.23;1.00;;;;;;;;;;5072236;28;20267;-56
2023/11/19 09:36:22;;;;;;;1.40;1.03;;;;;;;;;;5069272;28;20646;-57
2023/11/19 09:38:49;;;;;;;1.30;0.87;;;;;;;;;;5068982;28;20331;-56
2023/11/19 09:41:16;;;;;;;2.20;1.13;;;;;;;;;;5069254;28;20261;-56
2023/11/19 09:43:43;;;;;;;2.07;1.13;;;;;;;;;;5070205;28;20254;-56
2023/11/19 09:46:11;;;;;;;1.13;0.60;;;;;;;;;;5073802;28;20261;-56
2023/11/19 09:48:39;;;;;;;0.97;0.80;;;;;;;;;;5073314;28;20309;-56
2023/11/19 09:51:07;;;;;;;0.47;0.43;;;;;;;;;;5074038;28;20249;-57
2023/11/19 09:53:35;;;;;;;1.37;0.90;;;;;;;;;;5074027;28;20326;-56
2023/11/19 09:56:05;;;;;;;1.00;0.80;;;;;;;;;;5072234;28;20324;-56
2023/11/19 09:58:36;;;;;;;1.10;0.70;;;;;;;;;;5068666;28;20756;-57
2023/11/19 10:01:12;;;;;;;1.13;0.93;;;;;;;;;;5068551;28;20284;-56
2023/11/19 10:03:43;;;;;;;0.63;0.60;;;;;;;;;;5068806;28;20265;-56
2023/11/19 10:06:11;;;;;;;1.00;0.70;;;;;;;;;;5069929;28;20254;-56
2023/11/19 10:08:39;;;;;;;12.83;0.93;;;;;;;;;;5073882;28;20260;-56
2023/11/19 10:11:06;;;;;;;1.10;0.90;;;;;;;;;;5073492;28;20315;-56
2023/11/19 10:13:38;;;;;;;1.77;0.73;;;;;;;;;;5073449;28;20304;-56
2023/11/19 10:16:13;;;;;;;0.97;0.70;;;;;;;;;;5073226;28;20258;-56
2023/11/19 10:18:50;;;;;;;1.30;0.90;;;;;;;;;;5071639;28;20776;-56
2023/11/19 10:21:20;;;;;;;2.40;0.50;;;;;;;;;;5068723;28;20484;-56
2023/11/19 10:23:51;;;;;;;13.80;1.00;;;;;;;;;;5068210;28;20336;-56
2023/11/19 10:26:18;;;;;;;14.33;1.30;;;;;;;;;;5067934;28;20270;-56
2023/11/19 10:28:46;;;;;;;1.20;0.80;;;;;;;;;;5069566;28;20264;-56
2023/11/19 10:31:14;;;;;;;1.40;0.63;;;;;;;;;;5072279;28;20359;-56
2023/11/19 10:33:40;;;;;;;6.70;1.30;;;;;;;;;;5071480;28;20270;-56
2023/11/19 10:36:07;;;;;;;0.50;0.50;;;;;;;;;;5072512;28;20764;-56
2023/11/19 10:38:34;;;;;;;3.70;1.47;;;;;;;;;;5073497;28;20254;-56
2023/11/19 10:41:01;;;;;;;1.13;0.63;;;;;;;;;;5070940;28;20273;-56
2023/11/19 10:43:28;;;;;;;0.70;0.50;;;;;;;;;;5068095;28;20262;-56
2023/11/19 10:45:54;;;;;;;1.03;0.70;;;;;;;;;;5067603;28;20261;-57
2023/11/19 10:48:23;;;;;;;1.10;0.60;;;;;;;;;;5067700;28;20424;-56
2023/11/19 10:50:52;;;;;;;1.67;0.60;;;;;;;;;;5068793;28;20254;-56
2023/11/19 10:53:19;;;;;;;1.07;0.80;;;;;;;;;;5073120;28;20261;-56
2023/11/19 10:55:48;;;;;;;1.10;0.53;;;;;;;;;;5072740;28;20296;-56
2023/11/19 10:58:17;;;;;;;2.43;1.20;;;;;;;;;;5072614;28;20280;-56
2023/11/19 11:00:48;;;;;;;10.17;1.13;;;;;;;;;;5072323;28;20249;-56
2023/11/19 11:03:18;;;;;;;1.53;0.83;;;;;;;;;;5070688;28;20269;-56
2023/11/19 11:05:47;;;;;;;1.30;0.60;;;;;;;;;;5067599;28;20300;-56
2023/11/19 11:08:15;;;;;;;0.57;0.57;;;;;;;;;;5067449;28;20285;-56
2023/11/19 11:10:59;;;;;;;0.37;0.37;;;;;;;;;;5067293;28;20334;-56
2023/11/19 11:13:30;;;;;;;1.10;0.82;;;;;;;;;;5069002;28;20268;-56
2023/11/19 11:16:00;;;;;;;0.40;0.40;;;;;;;;;;5072538;28;20513;-56
2023/11/19 11:18:27;;;;;;;0.60;0.50;;;;;;;;;;5072334;28;20608;-56
2023/11/19 11:21:06;;;;;;;1.20;0.73;;;;;;;;;;5072226;28;20270;-56
2023/11/19 11:23:54;;;;;;;1.17;0.87;;;;;;;;;;5071965;28;20288;-56
2023/11/19 11:26:36;;;;;;;0.73;0.57;;;;;;;;;;5069201;28;20774;-56
2023/11/19 11:29:05;;;;;;;0.83;0.60;;;;;;;;;;5067114;28;20254;-56
2023/11/19 11:31:49;;;;;;;13.23;0.50;;;;;;;;;;5066706;28;20264;-56
2023/11/19 11:34:15;;;;;;;0.73;0.70;;;;;;;;;;5066890;28;20760;-56
2023/11/19 11:36:49;;;;;;;0.83;0.50;;;;;;;;;;5070438;28;20249;-56
2023/11/19 11:39:16;;;;;;;2.17;0.80;;;;;;;;;;5072018;28;20594;-56
2023/11/19 11:41:44;;;;;;;2.17;0.60;;;;;;;;;;5072241;28;20257;-56
2023/11/19 11:44:11;;;;;;;0.27;0.27;;;;;;;;;;5071649;28;20323;-56
2023/11/19 11:46:38;;;;;;;0.50;0.40;;;;;;;;;;5071268;28;20339;-56
2023/11/19 11:49:05;;;;;;;3.30;1.40;;;;;;;;;;5068075;28;20257;-56
2023/11/19 11:52:01;;;;;;;0.83;0.70;;;;;;;;;;5066732;28;20272;-56
2023/11/19 11:54:30;;;;;;;1.63;0.85;;;;;;;;;;5045168;28;20307;-56
2023/11/19 11:57:09;;;;;;;1.27;0.83;;;;;;;;;;5066684;28;20096;-56
2023/11/19 11:59:42;;;;;;;1.33;0.67;;;;;;;;;;5071409;28;20268;-56
2023/11/19 12:02:10;;;;;;;0.73;0.67;;;;;;;;;;5071721;28;20253;-56
2023/11/19 12:04:37;;;;;;;3.20;0.97;;;;;;;;;;5071844;28;20756;-56
2023/11/19 12:07:06;;;;;;;1.13;0.80;;;;;;;;;;5071349;28;20289;-56
2023/11/19 12:09:33;;;;;;;0.80;0.70;;;;;;;;;;5071870;28;20306;-56
2023/11/19 12:12:15;;;;;;;2.40;1.07;;;;;;;;;;5066498;28;20257;-56
2023/11/19 12:15:00;;;;;;;20.13;1.57;;;;;;;;;;5066250;28;20289;-56
2023/11/19 12:17:50;;;;;;;0.40;0.40;;;;;;;;;;5066385;28;20267;-56
2023/11/19 12:20:17;;;;;;;1.90;0.77;;;;;;;;;;5040510;28;20053;-56
2023/11/19 12:22:45;;;;;;;5.57;0.80;;;;;;;;;;5071670;28;20748;-55
2023/11/19 12:25:12;;;;;;;1.17;0.83;;;;;;;;;;5071723;28;20257;-56
2023/11/19 12:27:43;;;;;;;0.60;0.50;;;;;;;;;;5071391;28;20755;-55
2023/11/19 12:30:10;;;;;;;1.10;0.73;;;;;;;;;;5071296;28;20266;-56
2023/11/19 12:32:43;;;;;;;1.13;0.80;;;;;;;;;;5070323;28;20288;-56
2023/11/19 12:35:13;;;;;;;0.50;0.50;;;;;;;;;;5066458;28;20260;-56
2023/11/19 12:37:44;;;;;;;1.87;1.10;;;;;;;;;;5066574;28;20775;-55
2023/11/19 12:40:15;;;;;;;2.73;1.10;;;;;;;;;;5066117;28;20257;-56
2023/11/19 12:42:42;;;;;;;1.30;1.20;;;;;;;;;;5067068;28;20269;-55
2023/11/19 12:45:11;;;;;;;2.83;0.80;;;;;;;;;;5071235;28;20281;-55
2023/11/19 12:47:41;;;;;;;1.67;1.30;;;;;;;;;;5071142;28;20311;-56
2023/11/19 12:50:09;;;;;;;1.30;0.93;;;;;;;;;;5071446;28;20257;-56
2023/11/19 12:52:37;;;;;;;1.83;1.50;;;;;;;;;;5071354;28;20292;-56
2023/11/19 12:55:07;;;;;;;3.77;1.67;;;;;;;;;;5071698;28;20323;-57
2023/11/19 12:57:41;;;;;;;1.93;1.30;;;;;;;;;;5069769;28;20876;-56
2023/11/19 13:00:11;;;;;;;2.57;1.57;;;;;;;;;;5069876;28;20307;-56
2023/11/19 13:02:48;;;;;;;2.43;1.00;;;;;;;;;;5069894;28;20672;-55
2023/11/19 13:05:26;;;;;;;1.73;1.20;;;;;;;;;;5071086;28;20748;-55
2023/11/19 13:08:00;;;;;;;1.80;1.17;;;;;;;;;;5074946;28;20317;-55
2023/11/19 13:10:27;;;;;;;23.90;1.50;;;;;;;;;;5074600;28;20277;-55
2023/11/19 13:13:05;;;;;;;1.97;1.57;;;;;;;;;;5074964;28;20253;-56
2023/11/19 13:15:32;;;;;;;3.77;2.23;;;;;;;;;;5074426;28;20261;-56
2023/11/19 13:17:59;;;;;;;2.77;1.27;;;;;;;;;;5071867;28;20250;-56
2023/11/19 13:20:25;;;;;;;3.00;1.77;;;;;;;;;;5068899;28;20380;-55
2023/11/19 13:23:02;;;;;;;4.83;1.60;;;;;;;;;;5069540;28;20253;-56
2023/11/19 13:25:29;;;;;;;3.97;1.93;;;;;;;;;;5069393;28;20315;-56
2023/11/19 13:27:55;;;;;;;1.73;1.20;;;;;;;;;;5071746;28;20665;-56
2023/11/19 13:30:26;;;;;;;3.10;1.93;;;;;;;;;;5073889;28;20325;-56
2023/11/19 13:32:55;;;;;;;1.60;1.30;;;;;;;;;;5074543;28;20254;-56
2023/11/19 13:35:27;;;;;;;10.53;1.40;;;;;;;;;;5074489;28;20356;-56
2023/11/19 13:37:54;;;;;;;10.57;1.90;;;;;;;;;;5074176;28;20258;-56
2023/11/19 13:40:22;;;;;;;7.43;5.30;;;;;;;;;;5071727;28;20755;-56
2023/11/19 13:42:48;;;;;;;12.63;7.23;;;;;;;;;;5069072;28;20253;-56
2023/11/19 13:45:17;;;;;;;6.27;5.27;;;;;;;;;;5068319;28;20269;-56
2023/11/19 13:47:45;;;;;;;5.47;3.37;;;;;;;;;;5068315;28;20285;-56
2023/11/19 13:50:12;;;;;;;12.67;2.33;;;;;;;;;;5070998;28;20039;-56
2023/11/19 13:52:40;;;;;;;1.60;1.33;;;;;;;;;;5073968;28;20028;-56
2023/11/19 13:55:08;;;;;;;2.70;1.47;;;;;;;;;;5073752;28;20082;-57
2023/11/19 13:57:38;;;;;;;7.83;2.03;;;;;;;;;;5074143;28;20515;-56
2023/11/19 14:00:06;;;;;;;3.20;1.87;;;;;;;;;;5073210;28;20111;-57
2023/11/19 14:02:33;;;;;;;6.80;2.43;;;;;;;;;;5071121;28;20035;-56
2023/11/19 14:05:00;;;;;;;3.43;1.63;;;;;;;;;;5068006;28;20048;-57
2023/11/19 14:07:27;;;;;;;1.10;0.97;;;;;;;;;;5067898;28;20031;-56
2023/11/19 14:09:54;;;;;;;2.13;1.43;;;;;;;;;;5068049;28;20032;-56
2023/11/19 14:12:21;;;;;;;0.90;0.80;;;;;;;;;;5070258;28;20094;-56
2023/11/19 14:14:47;;;;;;;5.37;1.67;;;;;;;;;;5073756;28;20127;-56
2023/11/19 14:17:15;;;;;;;1.20;0.80;;;;;;;;;;5073250;28;20027;-56
2023/11/19 14:19:42;;;;;;;1.00;0.80;;;;;;;;;;5073665;28;20036;-57
2023/11/19 14:22:09;;;;;;;1.80;1.00;;;;;;;;;;5073621;28;20487;-56
2023/11/19 14:24:36;;;;;;;3.40;1.90;;;;;;;;;;5070646;28;20060;-57
2023/11/19 14:27:02;;;;;;;7.53;1.97;;;;;;;;;;5068129;28;20040;-56
2023/11/19 14:29:32;;;;;;;3.60;2.13;;;;;;;;;;5068121;28;20074;-56
2023/11/19 14:31:59;;;;;;;3.73;1.67;;;;;;;;;;5067968;28;21392;-56
2023/11/19 14:34:26;;;;;;;3.07;1.77;;;;;;;;;;5069427;28;20025;-56
2023/11/19 14:36:53;;;;;;;2.10;1.10;;;;;;;;;;5073041;28;20042;-57
2023/11/19 14:39:20;;;;;;;2.00;1.43;;;;;;;;;;5073095;28;20380;-56
2023/11/19 14:41:50;;;;;;;1.57;1.10;;;;;;;;;;5072896;28;20058;-56
2023/11/19 14:44:18;;;;;;;3.60;2.13;;;;;;;;;;5072761;28;20028;-57
2023/11/19 14:46:45;;;;;;;14.60;1.70;;;;;;;;;;5070722;28;20040;-57
2023/11/19 14:49:11;;;;;;;4.37;1.97;;;;;;;;;;5067315;28;20016;-57
2023/11/19 14:51:38;;;;;;;6.00;1.23;;;;;;;;;;5067805;28;20099;-57